Time;durP1;ratioP1;P1;durP2;ratioP2;P2;SDS_P1;SDS_P2;PMS_P1;PMS_P2;Temp;Humidity;BMP_temperature;BMP_pressure;BME280_temperature;BME280_humidity;BME280_pressure;Samples;Min_cycle;Max_cycle;Signal;HPM_P1;HPM_P2
2022/06/06 12:00:00;;;;;;;0.93;0.93;;;19.00;64.30;;;;;;5106393;27;20111;-66
2022/06/06 12:03:04;;;;;;;0.90;0.77;;;19.50;65.80;;;;;;5096253;28;20109;-67
2022/06/06 12:05:51;;;;;;;1.30;0.80;;;20.20;63.70;;;;;;5095621;28;20031;-66
2022/06/06 12:08:54;;;;;;;1.02;0.98;;;20.50;63.20;;;;;;5105374;28;20032;-65
2022/06/06 12:11:57;;;;;;;0.98;0.75;;;20.70;61.80;;;;;;5102401;28;20031;-67
2022/06/06 12:14:50;;;;;;;0.50;0.50;;;20.70;62.50;;;;;;5099907;28;20043;-66
2022/06/06 12:17:31;;;;;;;0.60;0.60;;;20.60;62.90;;;;;;5099853;28;20137;-65
2022/06/06 12:20:16;;;;;;;0.55;0.55;;;20.50;63.30;;;;;;5104643;28;20371;-66
2022/06/06 12:22:45;;;;;;;0.50;0.50;;;20.50;63.80;;;;;;5103343;28;20020;-66
2022/06/06 12:25:31;;;;;;;0.60;0.60;;;20.60;64.10;;;;;;5096348;28;20582;-66
2022/06/06 12:28:11;;;;;;;1.23;1.00;;;20.60;62.60;;;;;;5105953;28;20011;-67
2022/06/06 12:31:01;;;;;;;0.80;0.80;;;20.60;62.40;;;;;;5104033;28;20042;-65
2022/06/06 12:33:33;;;;;;;1.75;0.80;;;20.80;61.90;;;;;;5104427;28;20054;-67
2022/06/06 12:36:08;;;;;;;;;;;20.80;61.00;;;;;;5103752;28;20019;-67
2022/06/06 12:39:02;;;;;;;0.68;0.60;;;20.80;61.10;;;;;;5100412;28;19922;-65
2022/06/06 12:42:12;;;;;;;0.65;0.65;;;20.70;61.80;;;;;;5098154;28;20059;-67
2022/06/06 12:44:59;;;;;;;1.02;1.02;;;20.50;61.70;;;;;;5018672;28;20104;-66
2022/06/06 12:47:30;;;;;;;1.05;1.00;;;20.30;63.30;;;;;;5021088;28;20026;-66
2022/06/06 12:50:15;;;;;;;0.98;0.98;;;20.20;64.30;;;;;;5071694;28;20101;-63
2022/06/06 12:53:06;;;;;;;1.08;1.08;;;20.10;64.70;;;;;;5087200;28;20222;-65
2022/06/06 12:56:36;;;;;;;0.52;0.52;;;19.90;65.40;;;;;;5093134;28;20034;-63
2022/06/06 12:59:09;;;;;;;0.70;0.70;;;19.80;66.20;;;;;;5097637;28;20052;-64
2022/06/06 13:02:04;;;;;;;0.57;0.57;;;19.60;66.40;;;;;;5089968;28;20070;-64
2022/06/06 13:04:51;;;;;;;0.68;0.68;;;19.60;67.20;;;;;;5101460;28;20046;-65
2022/06/06 13:07:38;;;;;;;0.70;0.70;;;19.60;67.20;;;;;;5109131;28;20028;-64
2022/06/06 13:10:13;;;;;;;0.80;0.77;;;19.60;67.20;;;;;;5087044;28;20596;-65
2022/06/06 13:13:06;;;;;;;0.50;0.50;;;19.70;66.80;;;;;;5081194;28;20020;-65
2022/06/06 13:15:53;;;;;;;0.60;0.60;;;19.70;66.80;;;;;;5077480;28;20032;-64
2022/06/06 13:18:55;;;;;;;0.60;0.60;;;19.80;66.40;;;;;;5079785;28;20720;-65
2022/06/06 13:21:33;;;;;;;0.82;0.82;;;19.90;66.50;;;;;;5079231;28;20032;-65
2022/06/06 13:24:12;;;;;;;0.93;0.60;;;19.80;65.90;;;;;;5078862;28;20106;-64
2022/06/06 13:26:48;;;;;;;5.13;1.00;;;19.70;65.90;;;;;;5068551;28;20029;-65
2022/06/06 13:29:28;;;;;;;1.25;0.93;;;19.60;65.70;;;;;;5070368;28;20123;-63
2022/06/06 13:32:10;;;;;;;1.00;0.90;;;19.70;66.00;;;;;;5070378;28;21022;-64
2022/06/06 13:35:04;;;;;;;0.82;0.82;;;19.70;65.10;;;;;;5073475;28;20373;-64
2022/06/06 13:37:49;;;;;;;1.05;0.70;;;19.90;64.80;;;;;;5080865;28;20031;-64
2022/06/06 13:40:24;;;;;;;0.63;0.63;;;20.10;64.60;;;;;;5075156;28;20130;-64
2022/06/06 13:43:01;;;;;;;2.83;0.50;;;20.20;63.80;;;;;;5087319;28;20490;-63
2022/06/06 13:45:46;;;;;;;0.63;0.63;;;20.20;63.50;;;;;;5081199;28;20025;-67
2022/06/06 13:48:36;;;;;;;1.42;0.77;;;20.20;63.00;;;;;;5088220;28;20483;-67
2022/06/06 13:51:38;;;;;;;0.63;0.63;;;20.20;62.40;;;;;;5081099;28;20032;-63
2022/06/06 13:54:10;;;;;;;0.55;0.55;;;20.00;62.30;;;;;;5083983;28;20047;-63
2022/06/06 13:56:39;;;;;;;1.65;0.80;;;19.90;62.50;;;;;;5074176;28;20533;-63
2022/06/06 13:59:15;;;;;;;1.00;0.65;;;19.90;62.50;;;;;;5076787;28;20049;-65
2022/06/06 14:01:55;;;;;;;0.77;0.77;;;19.80;63.10;;;;;;5075265;28;20027;-65
2022/06/06 14:04:46;;;;;;;0.50;0.50;;;19.90;63.10;;;;;;5077384;28;20024;-63
2022/06/06 14:07:51;;;;;;;0.70;0.70;;;19.80;62.90;;;;;;5084096;28;20024;-64
2022/06/06 14:10:19;;;;;;;1.23;0.63;;;19.80;63.30;;;;;;5085826;28;20027;-65
2022/06/06 14:13:00;;;;;;;0.98;0.65;;;19.90;63.40;;;;;;5087941;28;20028;-64
2022/06/06 14:15:26;;;;;;;1.17;0.90;;;19.80;63.50;;;;;;5079793;28;20551;-64
2022/06/06 14:18:03;;;;;;;0.65;0.52;;;19.80;63.50;;;;;;5083135;28;20032;-64
2022/06/06 14:20:57;;;;;;;0.68;0.68;;;19.80;64.80;;;;;;5075240;28;20039;-66
2022/06/06 14:23:29;;;;;;;4.57;0.65;;;19.80;64.80;;;;;;5078536;28;20025;-67
2022/06/06 14:26:02;;;;;;;0.80;0.80;;;19.70;65.70;;;;;;5076657;28;20035;-66
2022/06/06 14:28:32;;;;;;;3.40;1.23;;;19.50;68.00;;;;;;5087033;28;21093;-67
2022/06/06 14:30:58;;;;;;;1.38;0.93;;;19.20;70.20;;;;;;5092064;28;20028;-68
2022/06/06 14:33:25;;;;;;;1.20;1.10;;;18.90;71.90;;;;;;5091916;28;20057;-68
2022/06/06 14:35:52;;;;;;;2.55;1.00;;;18.80;73.10;;;;;;5089254;28;20067;-68
2022/06/06 14:38:30;;;;;;;0.60;0.60;;;18.80;73.60;;;;;;5083550;28;20475;-68
2022/06/06 14:41:03;;;;;;;0.75;0.75;;;18.80;73.80;;;;;;5078612;28;20026;-68
2022/06/06 14:43:43;;;;;;;0.70;0.70;;;18.80;74.20;;;;;;5077665;28;20086;-68
2022/06/06 14:46:10;;;;;;;1.33;1.00;;;18.70;74.00;;;;;;5083597;28;20054;-67
2022/06/06 14:48:43;;;;;;;0.95;0.80;;;18.60;74.40;;;;;;5085420;28;20467;-64
2022/06/06 14:51:14;;;;;;;1.35;1.02;;;18.60;74.50;;;;;;5080769;28;20091;-68
2022/06/06 14:53:56;;;;;;;1.08;0.98;;;18.60;74.50;;;;;;5074288;28;20487;-67
2022/06/06 14:56:24;;;;;;;;;;;18.60;75.00;;;;;;5079396;28;20031;-67
2022/06/06 14:59:01;;;;;;;0.90;0.90;;;18.50;74.20;;;;;;5086285;28;19930;-67
2022/06/06 15:01:28;;;;;;;0.80;0.80;;;18.40;74.40;;;;;;5080595;28;20034;-67
2022/06/06 15:04:00;;;;;;;1.02;1.00;;;18.40;74.40;;;;;;5079132;28;20098;-67
2022/06/06 15:06:28;;;;;;;0.80;0.80;;;18.40;74.20;;;;;;5081385;28;20062;-67
2022/06/06 15:09:17;;;;;;;0.75;0.75;;;18.40;74.20;;;;;;5063267;28;20479;-67
2022/06/06 15:11:44;;;;;;;1.00;0.95;;;18.40;74.50;;;;;;5074768;28;20073;-67
2022/06/06 15:14:24;;;;;;;1.52;1.05;;;18.40;74.50;;;;;;5077162;28;20031;-67
2022/06/06 15:16:50;;;;;;;1.33;1.00;;;18.30;74.10;;;;;;5074014;28;20028;-67
2022/06/06 15:19:40;;;;;;;1.25;1.15;;;18.20;74.70;;;;;;5066528;28;20033;-67
2022/06/06 15:22:08;;;;;;;2.70;1.50;;;18.10;74.60;;;;;;5080614;28;20035;-68
2022/06/06 15:24:43;;;;;;;2.25;0.90;;;18.10;74.50;;;;;;5071970;28;20039;-67
2022/06/06 15:27:21;;;;;;;1.30;1.20;;;18.00;74.70;;;;;;5072820;28;20012;-67
2022/06/06 15:30:10;;;;;;;1.35;1.00;;;17.90;75.00;;;;;;5073169;28;20024;-68
2022/06/06 15:32:36;;;;;;;1.15;1.05;;;17.80;75.30;;;;;;5092283;28;20107;-67
2022/06/06 15:35:44;;;;;;;1.60;1.30;;;17.70;75.70;;;;;;5069699;28;20099;-67
2022/06/06 15:38:48;;;;;;;1.52;1.27;;;17.60;76.50;;;;;;5081738;28;20104;-64
2022/06/06 15:41:32;;;;;;;1.65;1.20;;;17.50;77.40;;;;;;5085927;28;20059;-65
2022/06/06 15:44:13;;;;;;;1.33;1.23;;;17.40;78.10;;;;;;5079068;28;20020;-65
2022/06/06 15:46:57;;;;;;;0.90;0.90;;;17.40;78.80;;;;;;5080171;28;20341;-64
2022/06/06 15:49:30;;;;;;;1.40;1.30;;;17.30;79.20;;;;;;5076634;28;20024;-65
2022/06/06 15:52:14;;;;;;;1.00;0.95;;;17.20;79.90;;;;;;5084200;28;20289;-65
2022/06/06 15:55:04;;;;;;;0.52;0.52;;;17.10;80.10;;;;;;5083515;28;20043;-64
2022/06/06 15:57:42;;;;;;;0.45;0.45;;;17.10;80.00;;;;;;5089482;28;20461;-65
2022/06/06 16:00:49;;;;;;;0.30;0.30;;;17.00;79.80;;;;;;5069178;28;20535;-64
2022/06/06 16:04:15;;;;;;;0.30;0.30;;;16.90;79.50;;;;;;5016590;28;20380;-64
2022/06/06 16:06:45;;;;;;;0.20;0.20;;;16.80;79.40;;;;;;5011601;28;20109;-65
2022/06/06 16:09:20;;;;;;;0.25;0.25;;;16.60;79.00;;;;;;5012220;28;20524;-68
2022/06/06 16:12:06;;;;;;;0.20;0.20;;;16.50;79.40;;;;;;5046152;28;20537;-66
2022/06/06 16:15:33;;;;;;;0.38;0.38;;;16.40;79.70;;;;;;5073221;28;20048;-65
2022/06/06 16:18:10;;;;;;;0.63;0.43;;;16.40;79.70;;;;;;5015483;28;20045;-66
2022/06/06 16:20:57;;;;;;;0.38;0.32;;;16.30;80.10;;;;;;5026056;28;20029;-64
2022/06/06 16:23:44;;;;;;;0.40;0.40;;;16.20;80.30;;;;;;5073604;28;20055;-64
2022/06/06 16:26:11;;;;;;;0.22;0.22;;;16.30;80.70;;;;;;5071714;28;20044;-65
2022/06/06 16:28:46;;;;;;;1.10;0.77;;;16.30;80.90;;;;;;5071290;28;20028;-64
2022/06/06 16:31:26;;;;;;;0.52;0.35;;;16.30;80.90;;;;;;5080081;28;20020;-64
2022/06/06 16:34:22;;;;;;;0.52;0.45;;;16.40;81.00;;;;;;5072286;28;20036;-65
2022/06/06 16:37:12;;;;;;;0.40;0.30;;;16.50;80.80;;;;;;5072993;28;20028;-65
2022/06/06 16:39:51;;;;;;;0.45;0.40;;;16.50;80.60;;;;;;5069365;28;20052;-66
2022/06/06 16:48:18;;;;;;;0.30;0.30;;;16.50;81.00;;;;;;5079745;28;20042;-64
2022/06/06 16:51:09;;;;;;;0.82;0.50;;;16.50;81.40;;;;;;5073225;28;20035;-65
2022/06/06 16:53:53;;;;;;;0.32;0.32;;;16.50;81.60;;;;;;5082528;28;20545;-65
2022/06/06 16:56:51;;;;;;;0.50;0.50;;;16.50;81.40;;;;;;5087668;28;20027;-65
2022/06/06 16:59:35;;;;;;;0.30;0.30;;;16.60;81.30;;;;;;5071286;28;20496;-65
2022/06/06 17:02:20;;;;;;;0.25;0.25;;;16.60;81.30;;;;;;5072640;28;20032;-67
2022/06/06 17:04:54;;;;;;;0.75;0.40;;;16.70;81.30;;;;;;5084167;28;20103;-68
2022/06/06 17:10:11;;;;;;;0.30;0.30;;;16.80;81.00;;;;;;5079727;28;20047;-65
2022/06/06 17:12:48;;;;;;;0.38;0.38;;;16.80;80.90;;;;;;5078309;28;20679;-64
2022/06/06 17:15:24;;;;;;;0.30;0.30;;;16.80;80.90;;;;;;5075012;28;20024;-64
2022/06/06 17:18:02;;;;;;;0.30;0.30;;;16.70;81.00;;;;;;5070741;28;20036;-65
2022/06/06 17:20:33;;;;;;;0.30;0.30;;;16.60;81.20;;;;;;5092110;28;20189;-65
2022/06/06 17:23:04;;;;;;;0.43;0.43;;;16.60;81.70;;;;;;5075380;28;20376;-68
2022/06/06 17:25:46;;;;;;;0.55;0.55;;;16.60;81.60;;;;;;5075087;28;20023;-68
2022/06/06 17:28:40;;;;;;;0.50;0.50;;;16.70;81.50;;;;;;5079174;28;20028;-68
2022/06/06 17:31:36;;;;;;;0.90;0.70;;;16.70;81.30;;;;;;5079464;28;20036;-64
2022/06/06 17:34:12;;;;;;;0.50;0.45;;;16.70;81.40;;;;;;5072950;28;20028;-64
2022/06/06 17:37:04;;;;;;;0.90;0.63;;;16.60;81.50;;;;;;5084314;28;20051;-65
2022/06/06 17:39:46;;;;;;;0.43;0.40;;;16.60;81.50;;;;;;5087151;28;20367;-64
2022/06/06 17:42:24;;;;;;;0.45;0.45;;;16.70;81.60;;;;;;5075887;28;20031;-65
2022/06/06 17:45:07;;;;;;;2.95;0.47;;;16.70;81.40;;;;;;5076087;28;20036;-65
2022/06/06 17:48:04;;;;;;;0.32;0.32;;;16.70;81.20;;;;;;5083786;28;20141;-67
2022/06/06 17:50:59;;;;;;;1.35;0.57;;;16.80;81.30;;;;;;5087053;28;20032;-67
2022/06/06 17:53:52;;;;;;;0.32;0.32;;;16.70;81.30;;;;;;5083654;28;20022;-68
2022/06/06 17:56:54;;;;;;;0.98;0.60;;;16.70;81.40;;;;;;5076760;28;20023;-67
2022/06/06 17:59:38;;;;;;;0.50;0.50;;;16.70;81.50;;;;;;5083971;28;20463;-68
2022/06/06 18:02:16;;;;;;;0.88;0.60;;;16.60;81.60;;;;;;5077720;28;20046;-67
2022/06/06 18:05:04;;;;;;;0.40;0.40;;;16.60;81.70;;;;;;5071240;28;20016;-67
2022/06/06 18:07:42;;;;;;;0.70;0.70;;;16.70;81.50;;;;;;5073728;28;20050;-69
2022/06/06 18:10:29;;;;;;;0.90;0.75;;;16.60;81.40;;;;;;5093510;28;20371;-68
2022/06/06 18:13:11;;;;;;;0.38;0.38;;;16.60;81.50;;;;;;5088279;28;20103;-68
2022/06/06 18:15:58;;;;;;;0.25;0.25;;;16.60;81.70;;;;;;5082942;28;20031;-68
2022/06/06 18:18:33;;;;;;;1.67;0.80;;;16.50;81.80;;;;;;5083414;28;20028;-68
2022/06/06 18:21:06;;;;;;;0.47;0.47;;;16.50;81.90;;;;;;5090755;28;20024;-68
2022/06/06 18:23:38;;;;;;;0.73;0.68;;;16.60;81.90;;;;;;5084340;28;20580;-68
2022/06/06 18:26:09;;;;;;;0.82;0.52;;;16.60;81.70;;;;;;5083913;28;20028;-67
2022/06/06 18:28:48;;;;;;;0.85;0.85;;;16.60;81.70;;;;;;5092183;28;20883;-67
2022/06/06 18:31:27;;;;;;;0.73;0.63;;;16.70;81.70;;;;;;5091474;28;20063;-68
2022/06/06 18:34:00;;;;;;;1.67;1.00;;;16.70;81.60;;;;;;5076015;28;20028;-68
2022/06/06 18:36:28;;;;;;;0.50;0.50;;;16.60;81.60;;;;;;5066824;28;20029;-67
2022/06/06 18:38:54;;;;;;;0.47;0.47;;;16.70;81.60;;;;;;5071073;28;20032;-66
2022/06/06 18:41:39;;;;;;;1.10;0.70;;;16.70;81.40;;;;;;5078398;28;20075;-66
2022/06/06 18:44:19;;;;;;;0.70;0.70;;;16.70;81.30;;;;;;5079290;28;20474;-65
2022/06/06 18:46:44;;;;;;;1.58;0.47;;;16.70;81.30;;;;;;5076806;28;20024;-66
2022/06/06 18:49:23;;;;;;;0.57;0.57;;;16.70;81.40;;;;;;5091913;28;20027;-65
2022/06/06 18:52:05;;;;;;;0.63;0.63;;;16.70;81.60;;;;;;5079344;28;20410;-65
2022/06/06 18:54:37;;;;;;;0.90;0.68;;;16.60;81.60;;;;;;5086610;28;20016;-65
2022/06/06 18:57:11;;;;;;;;;;;16.50;81.70;;;;;;5086324;28;20035;-65
2022/06/06 18:59:41;;;;;;;0.60;0.40;;;16.50;81.90;;;;;;5082074;28;19927;-64
2022/06/06 19:02:23;;;;;;;0.73;0.50;;;16.40;82.00;;;;;;5080639;28;20027;-64
2022/06/06 19:04:51;;;;;;;0.70;0.70;;;16.40;82.20;;;;;;5082378;28;20572;-65
2022/06/06 19:07:25;;;;;;;0.60;0.60;;;16.30;82.20;;;;;;5081318;28;20349;-64
2022/06/06 19:10:21;;;;;;;0.50;0.50;;;16.30;82.30;;;;;;5082034;28;20032;-65
2022/06/06 19:12:59;;;;;;;0.57;0.55;;;16.30;82.30;;;;;;5076064;28;20036;-64
2022/06/06 19:15:37;;;;;;;0.40;0.40;;;16.30;82.40;;;;;;5078286;28;20482;-65
2022/06/06 19:18:15;;;;;;;1.73;0.40;;;16.30;82.50;;;;;;5078517;28;21105;-65
2022/06/06 19:20:58;;;;;;;0.93;0.45;;;16.30;82.50;;;;;;5069408;28;20029;-67
2022/06/06 19:23:42;;;;;;;0.38;0.38;;;16.20;82.60;;;;;;5089903;28;20065;-67
2022/06/06 19:26:21;;;;;;;0.40;0.40;;;16.20;82.80;;;;;;5086582;28;20051;-67
2022/06/06 19:28:55;;;;;;;0.88;0.60;;;16.10;82.80;;;;;;5091062;28;20020;-68
2022/06/06 19:31:21;;;;;;;0.65;0.65;;;16.10;82.80;;;;;;5077313;28;20028;-67
2022/06/06 19:33:48;;;;;;;0.60;0.60;;;16.10;82.80;;;;;;5081480;28;20024;-67
2022/06/06 19:36:19;;;;;;;0.50;0.47;;;16.10;82.80;;;;;;5086744;28;20020;-67
2022/06/06 19:38:45;;;;;;;1.17;0.73;;;16.10;82.80;;;;;;5080282;28;20024;-67
2022/06/06 19:41:24;;;;;;;1.00;0.68;;;16.10;82.80;;;;;;5080543;28;20415;-68
2022/06/06 19:43:54;;;;;;;1.38;0.80;;;16.10;82.80;;;;;;5074910;28;20020;-68
2022/06/06 19:46:24;;;;;;;0.70;0.70;;;16.10;83.00;;;;;;5080501;28;20035;-67
2022/06/06 19:49:04;;;;;;;0.45;0.45;;;16.00;83.50;;;;;;5092309;28;20364;-67
2022/06/06 19:51:44;;;;;;;0.40;0.40;;;16.00;83.00;;;;;;5091312;28;20432;-67
2022/06/06 19:54:27;;;;;;;0.40;0.40;;;16.10;83.10;;;;;;5080885;28;20411;-68
2022/06/06 19:57:03;;;;;;;0.60;0.60;;;16.00;83.00;;;;;;5086640;28;20417;-65
2022/06/06 19:59:51;;;;;;;0.50;0.50;;;16.00;83.00;;;;;;5083122;28;20781;-65
2022/06/06 20:02:20;;;;;;;0.47;0.47;;;16.10;83.00;;;;;;5077678;28;20431;-65
2022/06/06 20:04:51;;;;;;;0.30;0.30;;;16.10;82.80;;;;;;5074775;28;20501;-65
2022/06/06 20:07:36;;;;;;;0.50;0.50;;;16.10;82.80;;;;;;5081957;28;20027;-64
2022/06/06 20:10:25;;;;;;;1.15;0.70;;;16.20;82.70;;;;;;5078632;28;20433;-65
2022/06/06 20:12:57;;;;;;;1.85;0.60;;;16.20;82.60;;;;;;5085545;28;20025;-66
2022/06/06 20:15:30;;;;;;;0.32;0.32;;;16.20;82.50;;;;;;5081337;28;20463;-64
2022/06/06 20:17:59;;;;;;;0.68;0.60;;;16.20;82.50;;;;;;5085888;28;20402;-67
2022/06/06 20:20:35;;;;;;;0.63;0.63;;;16.30;82.40;;;;;;5085536;28;20024;-68
2022/06/06 20:23:22;;;;;;;0.73;0.60;;;16.30;82.30;;;;;;5085872;28;20036;-68
2022/06/06 20:25:52;;;;;;;0.77;0.63;;;16.20;82.30;;;;;;5085170;28;20028;-68
2022/06/06 20:28:28;;;;;;;0.68;0.60;;;16.20;82.30;;;;;;5083758;28;20494;-67
2022/06/06 20:33:57;;;;;;;0.80;0.73;;;16.20;82.20;;;;;;5084576;28;20571;-68
2022/06/06 20:36:50;;;;;;;0.40;0.40;;;16.10;82.30;;;;;;5080898;28;20058;-68
2022/06/06 20:39:35;;;;;;;1.15;0.90;;;16.20;82.40;;;;;;5081195;28;20727;-67
2022/06/06 20:42:02;;;;;;;0.60;0.60;;;16.10;82.30;;;;;;5084232;28;20029;-68
2022/06/06 20:44:31;;;;;;;0.60;0.60;;;16.10;82.40;;;;;;5083265;28;20032;-68
2022/06/06 20:47:02;;;;;;;0.60;0.60;;;16.00;82.50;;;;;;5086976;28;20031;-68
2022/06/06 20:49:35;;;;;;;0.40;0.40;;;16.00;82.60;;;;;;5085208;28;20035;-67
2022/06/06 20:52:03;;;;;;;0.75;0.75;;;16.00;83.00;;;;;;5089886;28;20028;-68
2022/06/06 20:54:49;;;;;;;0.73;0.63;;;16.00;82.50;;;;;;5098150;28;20043;-67
2022/06/06 20:57:30;;;;;;;1.45;1.10;;;16.00;82.50;;;;;;5078575;28;20025;-67
2022/06/06 20:59:56;;;;;;;0.50;0.50;;;16.00;82.50;;;;;;5086536;28;20064;-68
2022/06/06 21:02:22;;;;;;;0.57;0.57;;;16.00;82.60;;;;;;5097532;28;20024;-68
2022/06/06 21:04:48;;;;;;;1.30;0.68;;;16.00;82.40;;;;;;5087651;28;20527;-67
2022/06/06 21:07:18;;;;;;;0.82;0.82;;;16.00;82.50;;;;;;5080961;28;20058;-67
2022/06/06 21:09:44;;;;;;;0.82;0.60;;;16.00;82.40;;;;;;5085222;28;20019;-67
2022/06/06 21:12:12;;;;;;;0.50;0.50;;;16.00;82.50;;;;;;5084014;28;20115;-68
2022/06/06 21:14:39;;;;;;;0.68;0.68;;;16.00;82.50;;;;;;5082366;28;20036;-67
2022/06/06 21:17:04;;;;;;;0.70;0.70;;;16.00;82.40;;;;;;5077741;28;20037;-68
2022/06/06 21:19:30;;;;;;;0.70;0.70;;;16.00;82.40;;;;;;5082434;28;20058;-65
2022/06/06 21:21:59;;;;;;;0.70;0.70;;;16.00;82.30;;;;;;5087350;28;20055;-66
2022/06/06 21:24:28;;;;;;;0.50;0.50;;;16.00;82.20;;;;;;5085151;28;20024;-65
2022/06/06 21:26:55;;;;;;;0.88;0.80;;;16.00;82.20;;;;;;5094341;28;20414;-65
2022/06/06 21:29:20;;;;;;;0.73;0.57;;;16.00;82.20;;;;;;5083203;28;20040;-65
2022/06/06 21:31:46;;;;;;;0.88;0.70;;;15.90;82.10;;;;;;5086827;28;20032;-64
2022/06/06 21:34:12;;;;;;;0.50;0.50;;;15.90;82.30;;;;;;5085283;28;20497;-65
2022/06/06 21:36:37;;;;;;;0.70;0.70;;;15.90;82.20;;;;;;5089771;28;20031;-65
2022/06/06 21:39:04;;;;;;;0.68;0.60;;;15.90;82.20;;;;;;5087130;28;20035;-64
2022/06/06 21:41:29;;;;;;;0.60;0.60;;;15.90;82.20;;;;;;5087141;28;20039;-67
2022/06/06 21:43:57;;;;;;;1.10;1.05;;;15.90;82.10;;;;;;5081950;28;20033;-67
2022/06/06 21:46:24;;;;;;;0.50;0.50;;;15.90;81.90;;;;;;5070118;28;20095;-67
2022/06/06 21:48:49;;;;;;;0.68;0.65;;;15.90;82.00;;;;;;5082944;28;20032;-64
2022/06/06 21:54:20;;;;;;;1.65;0.60;;;15.80;81.90;;;;;;5071230;28;20033;-67
2022/06/06 21:56:52;;;;;;;0.80;0.70;;;15.80;82.00;;;;;;5087505;28;20394;-68
2022/06/06 21:59:24;;;;;;;0.70;0.70;;;15.90;81.90;;;;;;5081662;28;20044;-67
2022/06/06 22:01:52;;;;;;;0.75;0.75;;;15.90;81.90;;;;;;5071896;28;20024;-67
2022/06/06 22:04:20;;;;;;;0.60;0.60;;;15.90;81.70;;;;;;5077700;28;20099;-67
2022/06/06 22:06:46;;;;;;;0.70;0.68;;;15.90;81.70;;;;;;5075787;28;20368;-67
2022/06/06 22:09:14;;;;;;;0.47;0.47;;;15.90;81.70;;;;;;5079365;28;20466;-67
2022/06/06 22:11:41;;;;;;;0.63;0.60;;;15.90;81.80;;;;;;5095938;28;20414;-65
2022/06/06 22:14:08;;;;;;;0.80;0.80;;;15.90;81.70;;;;;;5071415;28;20099;-64
2022/06/06 22:16:34;;;;;;;0.70;0.70;;;15.90;81.70;;;;;;5087122;28;20059;-65
2022/06/06 22:19:00;;;;;;;1.05;0.88;;;16.00;81.60;;;;;;5088635;28;20055;-65
2022/06/06 22:21:26;;;;;;;1.20;1.00;;;16.00;81.60;;;;;;5081938;28;20041;-66
2022/06/06 22:23:53;;;;;;;0.93;0.90;;;16.00;81.60;;;;;;5091929;28;20046;-65
2022/06/06 22:26:25;;;;;;;1.83;1.05;;;16.00;81.60;;;;;;5078613;28;20534;-65
2022/06/06 22:28:50;;;;;;;1.80;1.50;;;16.00;81.60;;;;;;5085187;28;20048;-65
2022/06/06 22:31:17;;;;;;;1.27;1.17;;;16.00;81.60;;;;;;5096691;28;20031;-65
2022/06/06 22:33:43;;;;;;;1.58;1.13;;;16.00;81.60;;;;;;5083157;28;20052;-65
2022/06/06 22:36:09;;;;;;;1.38;1.23;;;16.00;81.70;;;;;;5071855;28;20097;-65
2022/06/06 22:38:35;;;;;;;1.30;1.20;;;16.00;81.70;;;;;;5071692;28;20028;-65
2022/06/06 22:41:01;;;;;;;1.05;0.95;;;16.00;81.60;;;;;;5075693;28;20391;-67
2022/06/06 22:43:26;;;;;;;0.85;0.80;;;16.00;81.60;;;;;;5086283;28;20027;-67
2022/06/06 22:45:52;;;;;;;1.48;1.13;;;16.10;81.50;;;;;;5081915;28;20055;-67
2022/06/06 22:48:18;;;;;;;1.38;1.27;;;16.10;81.50;;;;;;5086233;28;20036;-67
2022/06/06 22:50:47;;;;;;;1.20;0.98;;;16.10;81.60;;;;;;5079185;28;20048;-67
2022/06/06 22:53:13;;;;;;;0.75;0.75;;;16.10;81.60;;;;;;5081952;28;20024;-68
2022/06/06 22:55:38;;;;;;;1.13;1.02;;;16.10;81.60;;;;;;5093813;28;20066;-67
2022/06/06 22:58:04;;;;;;;0.98;0.90;;;16.10;81.50;;;;;;5082324;28;20055;-66
2022/06/06 23:00:30;;;;;;;1.20;1.10;;;16.10;81.50;;;;;;5093619;28;20042;-65
2022/06/06 23:02:56;;;;;;;2.03;1.00;;;16.10;81.50;;;;;;5082520;28;20025;-65
2022/06/06 23:05:23;;;;;;;1.92;1.45;;;16.10;81.50;;;;;;5091610;28;20054;-65
2022/06/06 23:07:50;;;;;;;3.67;1.17;;;16.10;81.50;;;;;;5088094;28;20020;-66
2022/06/06 23:10:18;;;;;;;1.88;1.35;;;16.10;81.50;;;;;;5087899;28;20067;-66
2022/06/06 23:12:44;;;;;;;1.08;1.00;;;16.00;81.50;;;;;;5076769;28;20028;-66
2022/06/06 23:15:10;;;;;;;1.23;1.10;;;16.00;81.60;;;;;;5087741;28;20471;-67
2022/06/06 23:17:36;;;;;;;1.77;1.42;;;16.00;81.70;;;;;;5085945;28;20028;-67
2022/06/06 23:20:03;;;;;;;0.80;0.80;;;16.00;81.70;;;;;;5083731;28;20038;-67
2022/06/06 23:22:29;;;;;;;3.17;1.77;;;16.00;81.60;;;;;;5079511;28;20029;-67
2022/06/06 23:24:55;;;;;;;1.30;1.20;;;16.00;81.70;;;;;;5086728;28;20100;-65
2022/06/06 23:27:21;;;;;;;2.22;1.67;;;16.00;81.80;;;;;;5081166;28;20464;-65
2022/06/06 23:29:46;;;;;;;2.17;1.63;;;16.00;81.80;;;;;;5082227;28;20118;-67
2022/06/06 23:32:12;;;;;;;2.20;1.20;;;16.00;81.90;;;;;;5083595;28;20032;-67
2022/06/06 23:34:38;;;;;;;2.90;1.98;;;15.90;81.90;;;;;;5085570;28;20032;-67
2022/06/06 23:37:16;;;;;;;2.10;1.73;;;15.90;82.00;;;;;;5082428;28;20115;-67
2022/06/06 23:39:53;;;;;;;2.20;1.50;;;15.90;82.00;;;;;;5077089;28;20487;-67
2022/06/06 23:42:20;;;;;;;3.03;1.80;;;15.90;82.10;;;;;;5087653;28;20034;-67
2022/06/06 23:47:47;;;;;;;3.38;1.85;;;15.90;82.10;;;;;;5075827;28;20047;-67
2022/06/06 23:50:24;;;;;;;3.13;1.80;;;16.00;82.20;;;;;;5083247;28;20032;-67
2022/06/06 23:52:53;;;;;;;2.40;2.20;;;16.00;82.10;;;;;;5080138;28;20410;-67
2022/06/06 23:55:19;;;;;;;2.45;1.73;;;16.00;82.00;;;;;;5100317;28;20440;-67
2022/06/06 23:57:45;;;;;;;2.45;2.00;;;16.00;82.00;;;;;;5094465;28;20108;-67
